createdAt,value
2017-10-23T00:02:04.983Z,97547.02
2017-10-23T00:04:32.498Z,97542.70
2017-10-23T00:07:00.015Z,97541.20
2017-10-23T00:09:27.574Z,97549.34
2017-10-23T00:11:55.629Z,97545.59
2017-10-23T00:14:23.151Z,97550.27
2017-10-23T00:16:50.714Z,97549.13
2017-10-23T00:19:18.269Z,97550.52
2017-10-23T00:21:45.805Z,97550.44
2017-10-23T00:24:13.508Z,97548.60
2017-10-23T00:26:41.014Z,97542.36
2017-10-23T00:29:09.054Z,97541.55
2017-10-23T00:31:37.534Z,97541.67
2017-10-23T00:34:05.094Z,97541.02
2017-10-23T00:36:32.614Z,97543.72
2017-10-23T00:39:00.294Z,97548.22
2017-10-23T00:41:27.813Z,97543.67
2017-10-23T00:43:55.330Z,97539.14
2017-10-23T00:46:23.076Z,97541.55
2017-10-23T00:48:50.600Z,97548.62
2017-10-23T00:51:18.110Z,97552.19
2017-10-23T00:53:45.819Z,97551.66
2017-10-23T00:56:13.336Z,97551.60
2017-10-23T00:58:40.855Z,97555.68
2017-10-23T01:01:08.439Z,97552.08
2017-10-23T01:03:35.955Z,97556.43
2017-10-23T01:06:03.476Z,97556.38
2017-10-23T01:08:31.210Z,97550.32
2017-10-23T01:10:58.732Z,97554.30
2017-10-23T01:13:26.259Z,97558.38
2017-10-23T01:15:53.988Z,97556.83
2017-10-23T01:18:21.507Z,97556.02
2017-10-23T01:20:49.023Z,97553.95
2017-10-23T01:23:16.675Z,97558.83
2017-10-23T01:25:44.208Z,97552.34
2017-10-23T01:28:11.714Z,97555.58
2017-10-23T01:30:39.546Z,97563.58
2017-10-23T01:33:07.070Z,97553.86
2017-10-23T01:35:34.591Z,97550.89
2017-10-23T01:38:02.131Z,97547.34
2017-10-23T01:40:29.647Z,97548.92
2017-10-23T01:42:57.186Z,97549.91
2017-10-23T01:45:24.920Z,97536.36
2017-10-23T01:47:52.468Z,97537.84
2017-10-23T01:50:19.988Z,97540.42
2017-10-23T01:52:47.597Z,97536.48
2017-10-23T01:55:15.112Z,97539.73
2017-10-23T01:57:42.633Z,97551.88
2017-10-23T02:00:10.525Z,97553.27
2017-10-23T02:02:38.042Z,97550.19
2017-10-23T02:05:05.567Z,97551.47
2017-10-23T02:07:33.334Z,97542.34
2017-10-23T02:10:00.856Z,97548.51
2017-10-23T02:12:28.379Z,97538.75
2017-10-23T02:14:55.950Z,97541.97
2017-10-23T02:17:23.471Z,97544.64
2017-10-23T02:19:50.996Z,97547.36
2017-10-23T02:22:19.005Z,97551.59
2017-10-23T02:24:46.522Z,97548.55
2017-10-23T02:27:14.043Z,97545.58
2017-10-23T02:29:41.599Z,97546.11
2017-10-23T02:32:09.116Z,97547.17
2017-10-23T02:34:36.638Z,97546.04
2017-10-23T02:37:04.359Z,97549.71
2017-10-23T02:39:31.877Z,97552.66
2017-10-23T02:41:59.399Z,97548.49
2017-10-23T02:44:26.959Z,97552.48
2017-10-23T02:46:54.478Z,97564.27
2017-10-23T02:49:22.000Z,97562.33
2017-10-23T02:51:49.711Z,97557.62
2017-10-23T02:54:17.227Z,97553.57
2017-10-23T02:56:44.755Z,97554.72
2017-10-23T02:59:12.495Z,97549.45
2017-10-23T03:01:40.016Z,97550.20
2017-10-23T03:04:07.542Z,97551.89
2017-10-23T03:06:35.481Z,97551.09
2017-10-23T03:09:03.004Z,97553.06
2017-10-23T03:11:30.571Z,97557.91
2017-10-23T03:13:58.355Z,97552.15
2017-10-23T03:16:25.890Z,97554.57
2017-10-23T03:18:53.423Z,97558.50
2017-10-23T03:21:24.416Z,97561.72
2017-10-23T03:23:51.935Z,97555.33
2017-10-23T03:26:19.455Z,97555.66
2017-10-23T03:28:47.377Z,97557.94
2017-10-23T03:31:14.913Z,97556.03
2017-10-23T03:33:42.422Z,97554.87
2017-10-23T03:36:10.221Z,97562.31
2017-10-23T03:38:37.731Z,97565.09
2017-10-23T03:41:05.254Z,97565.59
2017-10-23T03:43:32.824Z,97569.05
2017-10-23T03:46:00.340Z,97576.85
2017-10-23T03:48:27.855Z,97579.43
2017-10-23T03:50:55.532Z,97585.58
2017-10-23T03:53:23.042Z,97585.53
2017-10-23T03:55:50.560Z,97579.36
2017-10-23T03:58:18.116Z,97587.72
2017-10-23T04:00:45.623Z,97592.00
2017-10-23T04:03:13.148Z,97601.09
2017-10-23T04:05:40.708Z,97595.64
2017-10-23T04:08:08.222Z,97601.55
2017-10-23T04:10:35.746Z,97608.41
2017-10-23T04:13:03.312Z,97616.27
2017-10-23T04:15:30.843Z,97615.32
2017-10-23T04:17:58.366Z,97611.84
2017-10-23T04:20:25.910Z,97620.95
2017-10-23T04:22:53.451Z,97619.65
2017-10-23T04:25:21.074Z,97620.28
2017-10-23T04:27:48.619Z,97627.34
2017-10-23T04:30:16.130Z,97628.13
2017-10-23T04:32:43.639Z,97626.27
2017-10-23T04:35:11.410Z,97629.45
2017-10-23T04:37:38.923Z,97634.02
2017-10-23T04:40:06.436Z,97632.31
2017-10-23T04:42:34.119Z,97629.02
2017-10-23T04:45:01.635Z,97627.37
2017-10-23T04:47:29.148Z,97625.21
2017-10-23T04:49:56.852Z,97624.55
2017-10-23T04:52:31.445Z,97630.78
2017-10-23T04:54:59.352Z,97627.12
2017-10-23T04:57:26.871Z,97623.30
2017-10-23T04:59:54.396Z,97626.15
2017-10-23T05:02:22.964Z,97631.95
2017-10-23T05:04:50.485Z,97635.31
2017-10-23T05:07:18.004Z,97633.45
2017-10-23T05:09:47.066Z,97632.75
2017-10-23T05:12:14.630Z,97632.35
2017-10-23T05:14:42.185Z,97637.31
2017-10-23T05:17:09.744Z,97633.68
2017-10-23T05:19:37.260Z,97633.19
2017-10-23T05:22:04.779Z,97633.19
2017-10-23T05:24:33.334Z,97633.77
2017-10-23T05:27:00.882Z,97638.61
2017-10-23T05:29:28.407Z,97636.75
2017-10-23T05:31:55.986Z,97641.38
2017-10-23T05:34:23.503Z,97639.00
2017-10-23T05:36:51.025Z,97637.60
2017-10-23T05:39:18.679Z,97640.53
2017-10-23T05:41:46.198Z,97640.88
2017-10-23T05:44:13.736Z,97655.20
2017-10-23T05:46:41.296Z,97651.84
2017-10-23T05:49:08.819Z,97649.73
2017-10-23T05:51:36.352Z,97656.66
2017-10-23T05:54:03.898Z,97655.09
2017-10-23T05:56:31.409Z,97656.95
2017-10-23T05:58:58.971Z,97651.46
2017-10-23T06:01:26.562Z,97649.34
2017-10-23T06:03:54.075Z,97656.22
2017-10-23T06:06:21.595Z,97657.33
2017-10-23T06:08:49.155Z,97663.42
2017-10-23T06:11:16.676Z,97662.59
2017-10-23T06:13:44.224Z,97666.00
2017-10-23T06:16:11.984Z,97668.20
2017-10-23T06:18:39.490Z,97674.45
2017-10-23T06:21:07.092Z,97673.74
2017-10-23T06:23:34.687Z,97672.27
2017-10-23T06:26:02.220Z,97683.98
2017-10-23T06:28:29.779Z,97684.79
2017-10-23T06:30:57.535Z,97686.98
2017-10-23T06:33:25.052Z,97685.80
2017-10-23T06:35:52.572Z,97686.17
2017-10-23T06:38:20.502Z,97687.60
2017-10-23T06:40:48.027Z,97684.49
2017-10-23T06:43:15.553Z,97688.72
2017-10-23T06:45:43.307Z,97685.58
2017-10-23T06:48:10.868Z,97689.56
2017-10-23T06:50:39.214Z,97697.88
2017-10-23T06:53:06.806Z,97698.52
2017-10-23T06:55:34.327Z,97699.83
2017-10-23T06:58:01.843Z,97694.23
2017-10-23T07:00:29.585Z,97692.80
2017-10-23T07:02:57.100Z,97695.05
2017-10-23T07:05:24.630Z,97696.15
2017-10-23T07:07:52.261Z,97695.33
2017-10-23T07:10:19.821Z,97705.56
2017-10-23T07:12:47.371Z,97702.06
2017-10-23T07:15:15.123Z,97704.17
2017-10-23T07:17:42.660Z,97712.19
2017-10-23T07:20:10.181Z,97715.73
2017-10-23T07:22:37.962Z,97715.89
2017-10-23T07:25:05.482Z,97713.70
2017-10-23T07:27:33.041Z,97714.84
2017-10-23T07:30:00.806Z,97714.02
2017-10-23T07:32:28.371Z,97722.69
2017-10-23T07:34:55.923Z,97720.85
2017-10-23T07:37:23.459Z,97725.33
2017-10-23T07:39:50.980Z,97720.77
2017-10-23T07:42:18.499Z,97720.00
2017-10-23T07:44:46.261Z,97713.48
2017-10-23T07:47:13.922Z,97721.63
2017-10-23T07:49:41.439Z,97729.77
2017-10-23T07:52:09.042Z,97729.95
2017-10-23T07:54:36.601Z,97736.73
2017-10-23T07:57:04.161Z,97737.30
2017-10-23T07:59:31.820Z,97740.23
2017-10-23T08:01:59.382Z,97741.52
2017-10-23T08:04:26.940Z,97744.56
2017-10-23T08:06:54.503Z,97750.90
2017-10-23T08:09:22.057Z,97753.35
2017-10-23T08:11:49.642Z,97752.89
2017-10-23T08:14:17.379Z,97758.11
2017-10-23T08:16:44.942Z,97756.62
2017-10-23T08:19:12.499Z,97753.80
2017-10-23T08:21:40.347Z,97752.34
2017-10-23T08:24:08.146Z,97762.50
2017-10-23T08:26:35.688Z,97767.05
2017-10-23T08:29:03.392Z,97760.60
2017-10-23T08:31:30.915Z,97763.20
2017-10-23T08:33:58.480Z,97753.72
2017-10-23T08:36:26.129Z,97753.12
2017-10-23T08:38:53.687Z,97764.67
2017-10-23T08:41:21.247Z,97761.94
2017-10-23T08:43:48.804Z,97753.98
2017-10-23T08:46:16.315Z,97751.74
2017-10-23T08:48:43.839Z,97752.77
2017-10-23T08:51:11.585Z,97752.91
2017-10-23T08:53:39.367Z,97760.42
2017-10-23T08:56:06.909Z,97763.11
2017-10-23T08:58:34.466Z,97760.37
2017-10-23T09:01:02.027Z,97768.59
2017-10-23T09:03:29.585Z,97770.13
2017-10-23T09:05:57.279Z,97766.59
2017-10-23T09:08:24.807Z,97759.16
2017-10-23T09:10:52.327Z,97757.94
2017-10-23T09:13:19.924Z,97755.38
2017-10-23T09:15:47.485Z,97747.63
2017-10-23T09:18:15.003Z,97752.93
2017-10-23T09:20:42.687Z,97745.15
2017-10-23T09:23:10.280Z,97753.31
2017-10-23T09:25:37.823Z,97755.48
2017-10-23T09:28:05.590Z,97757.84
2017-10-23T09:30:33.146Z,97756.55
2017-10-23T09:33:00.683Z,97757.34
2017-10-23T09:35:28.352Z,97758.45
2017-10-23T09:37:55.872Z,97766.23
2017-10-23T09:40:23.390Z,97764.40
2017-10-23T09:42:51.124Z,97770.74
2017-10-23T09:45:18.651Z,97761.38
2017-10-23T09:47:46.167Z,97775.97
2017-10-23T09:50:13.925Z,97787.11
2017-10-23T09:52:41.484Z,97776.58
2017-10-23T09:55:09.044Z,97777.84
2017-10-23T09:57:36.808Z,97782.61
2017-10-23T10:00:04.366Z,97776.19
2017-10-23T10:02:31.925Z,97791.55
2017-10-23T10:04:59.505Z,97787.05
2017-10-23T10:07:27.030Z,97794.95
2017-10-23T10:09:54.551Z,97788.33
2017-10-23T10:12:22.252Z,97789.01
2017-10-23T10:14:49.775Z,97793.49
2017-10-23T10:17:18.284Z,97788.30
2017-10-23T10:19:46.080Z,97794.00
2017-10-23T10:22:13.607Z,97791.27
2017-10-23T10:24:41.143Z,97785.00
2017-10-23T10:27:08.723Z,97796.08
2017-10-23T10:29:36.243Z,97790.02
2017-10-23T10:32:03.756Z,97792.52
2017-10-23T10:34:31.627Z,97796.16
2017-10-23T10:36:59.187Z,97797.52
2017-10-23T10:39:26.716Z,97799.77
2017-10-23T10:41:54.804Z,97799.14
2017-10-23T10:44:22.376Z,97799.30
2017-10-23T10:46:49.935Z,97803.44
2017-10-23T10:49:17.680Z,97805.91
2017-10-23T10:51:45.206Z,97809.83
2017-10-23T10:54:12.724Z,97808.80
2017-10-23T10:56:40.478Z,97813.66
2017-10-23T10:59:08.953Z,97814.06
2017-10-23T11:01:36.475Z,97810.28
2017-10-23T11:04:04.270Z,97810.77
2017-10-23T11:06:31.791Z,97815.89
2017-10-23T11:08:59.318Z,97816.17
2017-10-23T11:11:27.044Z,97809.36
2017-10-23T11:13:54.564Z,97808.63
2017-10-23T11:16:22.084Z,97803.64
2017-10-23T11:18:49.654Z,97809.27
2017-10-23T11:21:17.196Z,97800.26
2017-10-23T11:23:44.755Z,97803.66
2017-10-23T11:26:12.723Z,97800.98
2017-10-23T11:28:40.232Z,97799.38
2017-10-23T11:31:07.750Z,97807.20
2017-10-23T11:33:35.488Z,97804.66
2017-10-23T11:36:03.004Z,97797.14
2017-10-23T11:38:30.622Z,97800.99
2017-10-23T11:40:58.396Z,97806.08
2017-10-23T11:43:25.945Z,97807.58
2017-10-23T11:45:53.503Z,97811.38
2017-10-23T11:48:21.247Z,97813.98
2017-10-23T11:50:48.827Z,97816.61
2017-10-23T11:53:16.344Z,97821.56
2017-10-23T11:55:43.945Z,97815.39
2017-10-23T11:58:11.505Z,97817.40
2017-10-23T12:00:39.167Z,97815.02
2017-10-23T12:03:06.826Z,97823.13
2017-10-23T12:05:34.352Z,97819.63
2017-10-23T12:08:01.867Z,97822.42
2017-10-23T12:10:31.451Z,97821.18
2017-10-23T12:13:00.750Z,97823.87
2017-10-23T12:15:28.310Z,97814.06
2017-10-23T12:17:56.051Z,97821.08
2017-10-23T12:20:23.568Z,97822.80
2017-10-23T12:22:52.031Z,97823.22
2017-10-23T12:25:19.960Z,97816.34
2017-10-23T12:27:47.497Z,97819.61
2017-10-23T12:30:15.021Z,97816.38
2017-10-23T12:32:42.762Z,97822.05
2017-10-23T12:35:10.318Z,97822.63
2017-10-23T12:37:37.831Z,97814.30
2017-10-23T12:40:05.725Z,97814.95
2017-10-23T12:42:33.239Z,97812.91
2017-10-23T12:45:00.755Z,97814.88
2017-10-23T12:47:28.323Z,97821.67
2017-10-23T12:49:55.830Z,97820.05
2017-10-23T12:52:23.372Z,97809.27
2017-10-23T12:54:50.996Z,97818.88
2017-10-23T12:57:18.508Z,97808.99
2017-10-23T12:59:46.222Z,97810.08
2017-10-23T13:02:13.979Z,97819.86
2017-10-23T13:04:41.487Z,97816.80
2017-10-23T13:07:09.008Z,97816.98
2017-10-23T13:09:36.700Z,97809.72
2017-10-23T13:12:04.234Z,97814.91
2017-10-23T13:14:31.752Z,97823.69
2017-10-23T13:16:59.427Z,97824.59
2017-10-23T13:19:26.940Z,97825.81
2017-10-23T13:21:55.603Z,97827.56
2017-10-23T13:24:23.184Z,97832.48
2017-10-23T13:26:50.719Z,97817.95
2017-10-23T13:29:18.270Z,97826.34
2017-10-23T13:31:46.027Z,97826.94
2017-10-23T13:34:13.600Z,97823.81
2017-10-23T13:36:41.138Z,97821.53
2017-10-23T13:39:09.210Z,97827.78
2017-10-23T13:41:36.768Z,97820.54
2017-10-23T13:44:04.278Z,97832.09
2017-10-23T13:46:32.197Z,97831.48
2017-10-23T13:48:59.770Z,97832.74
2017-10-23T13:51:27.312Z,97828.63
2017-10-23T13:53:55.155Z,97825.34
2017-10-23T13:56:22.737Z,97844.64
2017-10-23T13:58:50.297Z,97833.30
2017-10-23T14:01:17.938Z,97831.66
2017-10-23T14:03:45.447Z,97841.86
2017-10-23T14:06:12.976Z,97835.73
2017-10-23T14:08:41.042Z,97845.27
2017-10-23T14:11:09.690Z,97839.69
2017-10-23T14:13:37.203Z,97843.06
2017-10-23T14:16:04.932Z,97844.52
2017-10-23T14:18:33.467Z,97846.13
2017-10-23T14:21:01.020Z,97841.73
2017-10-23T14:23:28.959Z,97844.26
2017-10-23T14:25:56.480Z,97844.36
2017-10-23T14:28:24.001Z,97839.30
2017-10-23T14:30:51.825Z,97837.91
2017-10-23T14:33:19.503Z,97838.95
2017-10-23T14:35:47.168Z,97842.68
2017-10-23T14:38:14.735Z,97841.95
2017-10-23T14:40:42.251Z,97850.52
2017-10-23T14:43:09.845Z,97847.11
2017-10-23T14:45:37.400Z,97846.34
2017-10-23T14:48:05.077Z,97844.83
2017-10-23T14:50:32.839Z,97851.37
2017-10-23T14:53:00.795Z,97856.12
2017-10-23T14:55:28.764Z,97853.36
2017-10-23T14:57:56.448Z,97860.44
2017-10-23T15:00:24.139Z,97868.80
2017-10-23T15:02:51.791Z,97870.39
2017-10-23T15:05:19.508Z,97861.06
2017-10-23T15:07:47.312Z,97868.98
2017-10-23T15:10:15.056Z,97867.31
2017-10-23T15:12:42.619Z,97868.66
2017-10-23T15:15:10.363Z,97868.72
2017-10-23T15:17:37.967Z,97877.87
2017-10-23T15:20:05.569Z,97880.36
2017-10-23T15:22:33.346Z,97875.80
2017-10-23T15:25:00.855Z,97877.88
2017-10-23T15:27:28.379Z,97881.86
2017-10-23T15:29:56.108Z,97886.99
2017-10-23T15:32:23.638Z,97889.60
2017-10-23T15:34:51.244Z,97886.32
2017-10-23T15:37:18.937Z,97887.84
2017-10-23T15:39:46.490Z,97886.50
2017-10-23T15:42:14.248Z,97896.06
2017-10-23T15:44:42.194Z,97902.38
2017-10-23T15:47:09.743Z,97902.42
2017-10-23T15:49:37.267Z,97906.70
2017-10-23T15:52:04.959Z,97911.19
2017-10-23T15:54:32.483Z,97908.99
2017-10-23T15:57:00.081Z,97912.67
2017-10-23T15:59:27.675Z,97911.78
2017-10-23T16:01:55.215Z,97912.31
2017-10-23T16:04:22.773Z,97913.83
2017-10-23T16:06:50.516Z,97912.58
2017-10-23T16:09:18.095Z,97915.91
2017-10-23T16:11:45.620Z,97927.20
2017-10-23T16:14:14.135Z,97930.13
2017-10-23T16:16:41.716Z,97922.45
2017-10-23T16:19:09.252Z,97925.25
2017-10-23T16:21:36.843Z,97924.92
2017-10-23T16:24:04.373Z,97927.41
2017-10-23T16:26:31.940Z,97921.41
2017-10-23T16:28:59.797Z,97926.95
2017-10-23T16:31:27.357Z,97926.99
2017-10-23T16:33:54.977Z,97922.37
2017-10-23T16:36:22.616Z,97929.34
2017-10-23T16:38:50.139Z,97932.11
2017-10-23T16:41:17.679Z,97933.89
2017-10-23T16:43:45.358Z,97941.53
2017-10-23T16:46:12.917Z,97940.83
2017-10-23T16:48:40.477Z,97934.41
2017-10-23T16:51:08.344Z,97945.27
2017-10-23T16:53:35.902Z,97943.08
2017-10-23T16:56:03.460Z,97944.69
2017-10-23T16:58:31.328Z,97949.39
2017-10-23T17:00:58.989Z,97954.18
2017-10-23T17:03:26.775Z,97952.89
2017-10-23T17:05:54.721Z,97969.95
2017-10-23T17:08:22.293Z,97956.46
2017-10-23T17:10:52.093Z,97963.34
2017-10-23T17:13:20.142Z,97959.55
2017-10-23T17:15:48.492Z,97959.34
2017-10-23T17:18:16.408Z,97964.54
2017-10-23T17:20:44.490Z,97965.48
2017-10-23T17:23:12.242Z,97972.84
2017-10-23T17:25:40.110Z,97961.80
2017-10-23T17:28:08.431Z,97961.30
2017-10-23T17:30:38.070Z,97966.31
2017-10-23T17:33:06.064Z,97966.88
2017-10-23T17:35:34.040Z,97964.49
2017-10-23T17:38:02.207Z,97972.91
2017-10-23T17:40:29.978Z,97976.92
2017-10-23T17:42:57.732Z,97981.25
2017-10-23T17:45:25.427Z,97980.64
2017-10-23T17:47:53.261Z,97978.88
2017-10-23T17:50:21.548Z,97979.72
2017-10-23T17:52:49.322Z,97983.36
2017-10-23T17:55:17.209Z,97983.45
2017-10-23T17:57:45.240Z,97985.57
2017-10-23T18:00:13.737Z,97985.06
2017-10-23T18:02:41.569Z,97989.03
2017-10-23T18:05:09.607Z,97982.42
2017-10-23T18:07:37.526Z,97987.85
2017-10-23T18:10:05.285Z,97987.42
2017-10-23T18:12:32.998Z,97995.12
2017-10-23T18:15:01.044Z,98004.67
2017-10-23T18:17:28.796Z,98011.66
2017-10-23T18:19:56.541Z,98019.75
2017-10-23T18:22:24.578Z,98020.91
2017-10-23T18:24:52.690Z,98012.60
2017-10-23T18:27:20.575Z,98022.31
2017-10-23T18:29:48.324Z,98024.16
2017-10-23T18:32:16.085Z,98020.43
2017-10-23T18:34:43.951Z,98019.39
2017-10-23T18:37:11.713Z,98017.34
2017-10-23T18:39:39.516Z,98016.36
2017-10-23T18:42:07.345Z,98012.11
2017-10-23T18:44:35.322Z,98016.67
2017-10-23T18:47:03.096Z,98014.65
2017-10-23T18:49:30.998Z,98009.98
2017-10-23T18:51:58.829Z,98006.52
2017-10-23T18:54:27.720Z,98003.08
2017-10-23T18:56:55.874Z,98008.54
2017-10-23T18:59:23.739Z,98012.47
2017-10-23T19:01:52.345Z,98015.08
2017-10-23T19:04:20.394Z,98014.60
2017-10-23T19:06:48.260Z,98011.87
2017-10-23T19:09:16.126Z,98017.42
2017-10-23T19:11:44.215Z,98013.91
2017-10-23T19:14:12.378Z,98014.89
2017-10-23T19:16:40.236Z,98014.56
2017-10-23T19:19:08.186Z,98011.08
2017-10-23T19:21:36.255Z,98016.06
2017-10-23T19:24:04.144Z,98020.64
2017-10-23T19:26:32.343Z,98025.62
2017-10-23T19:29:01.027Z,98035.86
2017-10-23T19:31:28.983Z,98033.75
2017-10-23T19:33:57.877Z,98040.94
2017-10-23T19:36:25.727Z,98036.98
2017-10-23T19:38:53.594Z,98040.50
2017-10-23T19:41:21.476Z,98038.83
2017-10-23T19:43:49.226Z,98042.30
2017-10-23T19:46:18.034Z,98042.59
2017-10-23T19:48:45.981Z,98048.75
2017-10-23T19:51:13.949Z,98050.02
2017-10-23T19:53:41.770Z,98052.76
2017-10-23T19:56:09.963Z,98051.27
2017-10-23T19:58:37.788Z,98054.62
2017-10-23T20:01:06.233Z,98055.91
2017-10-23T20:03:34.920Z,98058.15
2017-10-23T20:06:02.684Z,98060.64
2017-10-23T20:08:30.447Z,98056.34
2017-10-23T20:10:58.314Z,98058.67
2017-10-23T20:13:25.997Z,98060.20
2017-10-23T20:15:53.768Z,98056.60
2017-10-23T20:18:22.102Z,98055.22
2017-10-23T20:20:49.834Z,98063.63
2017-10-23T20:23:17.672Z,98061.45
2017-10-23T20:25:46.049Z,98059.64
2017-10-23T20:28:13.707Z,98064.63
2017-10-23T20:30:41.559Z,98064.54
2017-10-23T20:33:09.419Z,98064.17
2017-10-23T20:35:36.977Z,98060.80
2017-10-23T20:38:05.577Z,98067.16
2017-10-23T20:40:33.179Z,98063.13
2017-10-23T20:43:00.885Z,98072.55
2017-10-23T20:45:28.442Z,98071.58
2017-10-23T20:47:56.245Z,98075.45
2017-10-23T20:50:24.665Z,98080.27
2017-10-23T20:52:52.946Z,98084.98
2017-10-23T20:55:20.624Z,98083.47
2017-10-23T20:57:49.104Z,98079.03
2017-10-23T21:00:16.615Z,98084.19
2017-10-23T21:02:44.307Z,98084.60
2017-10-23T21:05:11.823Z,98080.30
2017-10-23T21:07:39.423Z,98082.81
2017-10-23T21:10:07.399Z,98084.56
2017-10-23T21:12:34.973Z,98082.83
2017-10-23T21:15:02.511Z,98087.55
2017-10-23T21:17:30.392Z,98081.56
2017-10-23T21:19:57.906Z,98085.60
2017-10-23T21:22:25.452Z,98077.97
2017-10-23T21:24:53.074Z,98090.03
2017-10-23T21:27:20.603Z,98087.87
2017-10-23T21:29:48.213Z,98085.17
2017-10-23T21:32:16.059Z,98092.29
2017-10-23T21:34:43.618Z,98089.17
2017-10-23T21:37:11.191Z,98095.75
2017-10-23T21:39:38.941Z,98094.49
2017-10-23T21:42:06.919Z,98098.98
2017-10-23T21:44:34.468Z,98104.56
2017-10-23T21:47:10.915Z,98106.09
2017-10-23T21:49:38.443Z,98105.05
2017-10-23T21:52:05.963Z,98103.55
2017-10-23T21:54:33.695Z,98109.80
2017-10-23T21:57:01.216Z,98114.36
2017-10-23T21:59:28.742Z,98113.39
2017-10-23T22:01:56.302Z,98110.59
2017-10-23T22:04:23.832Z,98108.35
2017-10-23T22:06:51.353Z,98108.72
2017-10-23T22:09:18.970Z,98103.23
2017-10-23T22:11:46.528Z,98106.36
2017-10-23T22:14:14.087Z,98108.89
2017-10-23T22:16:42.361Z,98106.48
2017-10-23T22:19:09.873Z,98106.86
2017-10-23T22:21:37.399Z,98109.22
2017-10-23T22:24:04.976Z,98102.20
2017-10-23T22:26:32.502Z,98105.41
2017-10-23T22:29:00.078Z,98110.14
2017-10-23T22:31:27.810Z,98106.45
2017-10-23T22:33:55.327Z,98103.86
2017-10-23T22:36:22.851Z,98106.09
2017-10-23T22:38:50.415Z,98109.46
2017-10-23T22:41:17.964Z,98113.61
2017-10-23T22:43:45.512Z,98109.61
2017-10-23T22:46:13.454Z,98108.71
2017-10-23T22:48:40.973Z,98110.30
2017-10-23T22:51:08.491Z,98115.81
2017-10-23T22:53:36.055Z,98120.28
2017-10-23T22:56:03.620Z,98114.19
2017-10-23T22:58:31.175Z,98111.92
2017-10-23T23:00:59.122Z,98116.59
2017-10-23T23:03:26.641Z,98107.17
2017-10-23T23:05:54.184Z,98107.27
2017-10-23T23:08:21.831Z,98110.63
2017-10-23T23:10:49.348Z,98109.53
2017-10-23T23:13:16.865Z,98114.44
2017-10-23T23:15:44.423Z,98112.66
2017-10-23T23:18:11.947Z,98113.53
2017-10-23T23:20:39.468Z,98115.25
2017-10-23T23:23:07.276Z,98117.66
2017-10-23T23:25:34.835Z,98116.75
2017-10-23T23:28:02.353Z,98121.98
2017-10-23T23:30:30.260Z,98126.50
2017-10-23T23:32:57.775Z,98129.50
2017-10-23T23:35:25.299Z,98123.27
2017-10-23T23:37:53.023Z,98129.45
2017-10-23T23:40:20.540Z,98128.39
2017-10-23T23:42:48.058Z,98124.31
2017-10-23T23:45:15.620Z,98117.91
2017-10-23T23:47:43.175Z,98117.55
2017-10-23T23:50:10.733Z,98117.16
2017-10-23T23:52:38.887Z,98113.37
2017-10-23T23:55:06.411Z,98122.05
2017-10-23T23:57:33.932Z,98122.66
